createdAt,value
2022-11-22T00:00:40.709Z,28.30
2022-11-22T00:03:08.731Z,28.10
2022-11-22T00:05:35.755Z,26.10
2022-11-22T00:08:03.578Z,21.87
2022-11-22T00:10:30.589Z,26.63
2022-11-22T00:12:57.530Z,28.47
2022-11-22T00:15:24.745Z,28.03
2022-11-22T00:17:51.935Z,25.93
2022-11-22T00:20:19.113Z,30.47
2022-11-22T00:22:46.273Z,27.30
2022-11-22T00:25:13.802Z,28.07
2022-11-22T00:27:41.249Z,30.40
2022-11-22T00:30:08.996Z,26.80
2022-11-22T00:32:36.202Z,27.03
2022-11-22T00:35:04.193Z,28.33
2022-11-22T00:37:31.456Z,26.83
2022-11-22T00:39:58.519Z,28.53
2022-11-22T00:42:25.673Z,27.07
2022-11-22T00:44:52.610Z,25.57
2022-11-22T00:47:19.517Z,27.80
2022-11-22T00:49:46.462Z,27.40
2022-11-22T00:52:13.479Z,29.23
2022-11-22T00:54:40.473Z,26.17
2022-11-22T00:57:07.483Z,25.70
2022-11-22T00:59:34.363Z,28.73
2022-11-22T01:02:01.315Z,26.33
2022-11-22T01:04:28.530Z,28.83
2022-11-22T01:06:55.486Z,27.23
2022-11-22T01:09:24.111Z,27.47
2022-11-22T01:11:51.413Z,28.93
2022-11-22T01:14:19.596Z,28.13
2022-11-22T01:16:47.423Z,28.50
2022-11-22T01:19:14.545Z,29.10
2022-11-22T01:21:41.519Z,27.17
2022-11-22T01:24:09.088Z,29.53
2022-11-22T01:26:36.225Z,28.17
2022-11-22T01:29:03.940Z,29.07
2022-11-22T01:31:31.017Z,27.53
2022-11-22T01:33:59.273Z,29.07
2022-11-22T01:36:27.690Z,29.53
2022-11-22T01:38:55.070Z,28.37
2022-11-22T01:41:22.214Z,29.60
2022-11-22T01:43:49.146Z,28.53
2022-11-22T01:46:37.426Z,29.60
2022-11-22T01:49:19.244Z,30.47
2022-11-22T01:51:52.530Z,28.70
2022-11-22T01:54:24.511Z,29.60
2022-11-22T01:56:57.119Z,28.30
2022-11-22T01:59:29.606Z,31.27
2022-11-22T02:01:57.409Z,28.00
2022-11-22T02:04:26.070Z,28.13
2022-11-22T02:07:04.833Z,30.57
2022-11-22T02:09:33.424Z,28.77
2022-11-22T02:12:03.685Z,29.03
2022-11-22T02:14:31.543Z,30.90
2022-11-22T02:16:58.428Z,30.67
2022-11-22T02:19:48.430Z,30.13
2022-11-22T02:22:46.861Z,30.87
2022-11-22T02:25:37.091Z,28.93
2022-11-22T02:28:04.957Z,30.97
2022-11-22T02:30:31.962Z,29.23
2022-11-22T02:32:58.888Z,30.27
2022-11-22T02:35:28.692Z,29.70
2022-11-22T02:38:10.927Z,32.13
2022-11-22T02:40:50.653Z,33.10
2022-11-22T02:43:21.894Z,32.27
2022-11-22T02:45:49.086Z,32.20
2022-11-22T02:48:18.416Z,31.77
2022-11-22T02:50:45.911Z,30.23
2022-11-22T02:53:13.795Z,32.23
2022-11-22T02:55:41.082Z,31.47
2022-11-22T02:58:08.387Z,33.23
2022-11-22T03:00:38.513Z,32.83
2022-11-22T03:03:06.087Z,32.27
2022-11-22T03:05:33.304Z,32.50
2022-11-22T03:08:00.259Z,30.87
2022-11-22T03:10:27.264Z,31.63
2022-11-22T03:12:54.204Z,32.37
2022-11-22T03:15:21.218Z,30.30
2022-11-22T03:17:48.303Z,32.63
2022-11-22T03:20:15.546Z,32.97
2022-11-22T03:22:42.506Z,33.47
2022-11-22T03:25:09.695Z,32.87
2022-11-22T03:27:36.674Z,32.57
2022-11-22T03:30:04.367Z,33.40
2022-11-22T03:32:31.293Z,34.27
2022-11-22T03:34:58.181Z,32.80
2022-11-22T03:37:25.205Z,31.60
2022-11-22T03:39:52.225Z,32.77
2022-11-22T03:42:21.960Z,32.50
2022-11-22T03:44:49.258Z,33.70
2022-11-22T03:47:16.174Z,32.97
2022-11-22T03:49:43.321Z,34.07
2022-11-22T03:52:10.399Z,34.07
2022-11-22T03:54:37.359Z,33.77
2022-11-22T03:57:05.610Z,31.60
2022-11-22T03:59:32.791Z,33.63
2022-11-22T04:01:59.857Z,33.27
2022-11-22T04:04:26.821Z,36.50
2022-11-22T04:06:53.769Z,35.57
2022-11-22T04:09:20.833Z,34.30
2022-11-22T04:11:47.775Z,34.23
2022-11-22T04:14:33.470Z,35.83
2022-11-22T04:17:00.370Z,34.30
2022-11-22T04:19:27.470Z,35.03
2022-11-22T04:21:54.516Z,33.33
2022-11-22T04:24:40.162Z,35.27
2022-11-22T04:27:07.081Z,34.97
2022-11-22T04:29:33.990Z,33.07
2022-11-22T04:32:19.449Z,34.57
2022-11-22T04:34:46.387Z,36.60
2022-11-22T04:37:13.385Z,36.03
2022-11-22T04:39:40.296Z,35.33
2022-11-22T04:42:25.833Z,32.77
2022-11-22T04:44:52.805Z,31.40
2022-11-22T04:47:39.535Z,32.73
2022-11-22T04:50:28.395Z,33.53
2022-11-22T04:52:57.670Z,30.20
2022-11-22T04:55:24.990Z,28.87
2022-11-22T04:57:57.517Z,30.17
2022-11-22T05:00:27.676Z,30.57
2022-11-22T05:02:54.975Z,29.93
2022-11-22T05:05:22.545Z,33.13
2022-11-22T05:07:49.543Z,32.07
2022-11-22T05:10:19.959Z,32.73
2022-11-22T05:12:49.785Z,30.80
2022-11-22T05:15:16.857Z,32.23
2022-11-22T05:17:43.999Z,32.50
2022-11-22T05:20:11.481Z,33.47
2022-11-22T05:22:56.981Z,33.93
2022-11-22T05:25:25.648Z,31.77
2022-11-22T05:27:56.009Z,34.70
2022-11-22T05:30:22.894Z,33.03
2022-11-22T05:32:49.796Z,32.73
2022-11-22T05:35:16.807Z,31.87
2022-11-22T05:37:43.781Z,33.77
2022-11-22T05:40:11.786Z,32.60
2022-11-22T05:42:38.731Z,33.50
2022-11-22T05:45:06.264Z,33.80
2022-11-22T05:47:36.752Z,32.00
2022-11-22T05:50:04.667Z,36.43
2022-11-22T05:52:32.050Z,33.30
2022-11-22T05:54:59.020Z,32.97
2022-11-22T05:57:26.381Z,34.03
2022-11-22T05:59:53.740Z,33.30
2022-11-22T06:02:21.336Z,32.90
2022-11-22T06:04:48.326Z,33.40
2022-11-22T06:07:15.408Z,35.03
2022-11-22T06:09:42.909Z,32.07
2022-11-22T06:12:09.873Z,33.33
2022-11-22T06:14:42.935Z,35.00
2022-11-22T06:17:10.623Z,34.53
2022-11-22T06:19:37.544Z,36.53
2022-11-22T06:22:04.539Z,33.37
2022-11-22T06:24:31.624Z,36.53
2022-11-22T06:26:58.525Z,35.30
2022-11-22T06:29:25.442Z,33.03
2022-11-22T06:31:53.466Z,35.13
2022-11-22T06:34:20.429Z,35.50
2022-11-22T06:36:47.375Z,35.23
2022-11-22T06:39:14.384Z,34.60
2022-11-22T06:41:41.341Z,36.33
2022-11-22T06:44:10.279Z,35.40
2022-11-22T06:46:37.742Z,34.23
2022-11-22T06:49:05.111Z,32.73
2022-11-22T06:51:32.882Z,36.47
2022-11-22T06:53:59.846Z,35.27
2022-11-22T06:56:41.068Z,34.67
2022-11-22T06:59:09.250Z,37.13
2022-11-22T07:01:37.535Z,33.73
2022-11-22T07:04:05.402Z,32.00
2022-11-22T07:06:37.259Z,32.83
2022-11-22T07:09:08.491Z,32.70
2022-11-22T07:11:36.353Z,31.97
2022-11-22T07:14:08.141Z,33.47
2022-11-22T07:16:38.069Z,34.03
2022-11-22T07:19:06.292Z,36.00
2022-11-22T07:21:33.462Z,35.00
2022-11-22T07:24:00.409Z,40.03
2022-11-22T07:26:28.575Z,40.70
2022-11-22T07:28:55.943Z,36.50
2022-11-22T07:31:22.892Z,39.20
2022-11-22T07:33:49.873Z,41.63
2022-11-22T07:36:22.157Z,38.30
2022-11-22T07:38:49.941Z,38.43
2022-11-22T07:41:18.765Z,37.70
2022-11-22T07:43:47.075Z,40.70
2022-11-22T07:46:31.213Z,37.33
2022-11-22T07:48:59.362Z,38.87
2022-11-22T07:51:26.625Z,40.53
2022-11-22T07:53:56.465Z,39.07
2022-11-22T07:56:24.087Z,38.23
2022-11-22T07:58:51.034Z,39.03
2022-11-22T08:01:19.935Z,39.90
2022-11-22T08:03:46.944Z,39.57
2022-11-22T08:06:15.611Z,39.67
2022-11-22T08:08:42.898Z,39.03
2022-11-22T08:11:11.142Z,38.20
2022-11-22T08:13:38.131Z,39.27
2022-11-22T08:16:11.168Z,38.63
2022-11-22T08:18:39.956Z,38.00
2022-11-22T08:21:10.405Z,37.57
2022-11-22T08:23:38.501Z,37.87
2022-11-22T08:26:07.472Z,38.70
2022-11-22T08:28:34.974Z,37.73
2022-11-22T08:31:09.408Z,38.73
2022-11-22T08:33:36.874Z,37.10
2022-11-22T08:36:04.494Z,36.47
2022-11-22T08:38:31.404Z,40.53
2022-11-22T08:40:59.204Z,37.90
2022-11-22T08:43:26.198Z,38.00
2022-11-22T08:45:59.145Z,36.73
2022-11-22T08:48:27.992Z,37.77
2022-11-22T08:50:58.293Z,40.03
2022-11-22T08:53:26.447Z,37.60
2022-11-22T08:55:54.649Z,39.40
2022-11-22T08:58:22.811Z,37.90
2022-11-22T09:00:49.721Z,36.07
2022-11-22T09:03:16.741Z,40.60
2022-11-22T09:08:36.647Z,39.67
2022-11-22T09:11:18.075Z,38.77
2022-11-22T09:13:45.535Z,37.67
2022-11-22T09:16:19.137Z,37.33
2022-11-22T09:18:49.794Z,39.30
2022-11-22T09:21:19.662Z,40.07
2022-11-22T09:23:50.621Z,42.37
2022-11-22T09:26:24.474Z,40.40
2022-11-22T09:28:53.369Z,41.20
2022-11-22T09:31:22.531Z,42.97
2022-11-22T09:33:50.387Z,42.80
2022-11-22T09:36:21.175Z,42.83
2022-11-22T09:38:48.987Z,42.97
2022-11-22T09:41:16.036Z,40.90
2022-11-22T09:44:21.097Z,41.53
2022-11-22T09:47:44.446Z,39.77
2022-11-22T09:50:45.964Z,38.03
2022-11-22T09:53:19.175Z,39.03
2022-11-22T09:55:49.503Z,36.53
2022-11-22T09:59:05.980Z,40.50
2022-11-22T10:02:19.342Z,37.47
2022-11-22T10:05:00.307Z,36.27
2022-11-22T10:07:55.123Z,35.70
2022-11-22T10:10:42.127Z,40.90
2022-11-22T10:13:19.545Z,37.37
2022-11-22T10:16:07.576Z,37.20
2022-11-22T10:18:54.838Z,32.90
2022-11-22T10:21:21.964Z,36.50
2022-11-22T10:23:48.914Z,35.77
2022-11-22T10:26:27.366Z,33.73
2022-11-22T10:29:23.833Z,35.60
2022-11-22T10:31:57.783Z,36.40
2022-11-22T10:34:55.633Z,39.50
2022-11-22T10:38:07.088Z,37.97
2022-11-22T10:41:34.099Z,37.23
2022-11-22T10:44:25.697Z,34.83
2022-11-22T10:47:09.745Z,35.17
2022-11-22T10:49:45.532Z,36.13
2022-11-22T10:52:25.285Z,32.97
2022-11-22T10:55:18.992Z,34.00
2022-11-22T10:58:31.787Z,36.90
2022-11-22T11:01:32.315Z,36.20
2022-11-22T11:04:01.716Z,31.80
2022-11-22T11:12:55.779Z,35.43
2022-11-22T11:15:56.273Z,32.27
2022-11-22T11:18:46.468Z,30.60
2022-11-22T11:21:14.967Z,29.03
2022-11-22T11:23:42.843Z,31.07
2022-11-22T11:26:32.345Z,29.80
2022-11-22T11:29:17.448Z,25.70
2022-11-22T11:31:51.921Z,27.03
2022-11-22T11:34:26.790Z,22.63
2022-11-22T11:36:57.910Z,23.70
2022-11-22T11:39:31.935Z,22.17
2022-11-22T11:41:59.590Z,21.53
2022-11-22T11:44:37.316Z,21.60
2022-11-22T11:47:05.158Z,22.07
2022-11-22T11:49:35.137Z,21.47
2022-11-22T11:52:34.259Z,21.43
2022-11-22T11:55:02.674Z,21.37
2022-11-22T11:57:37.082Z,22.57
2022-11-22T12:00:22.059Z,24.00
2022-11-22T12:02:52.101Z,24.23
2022-11-22T12:05:18.979Z,23.73
2022-11-22T12:07:47.881Z,22.37
2022-11-22T12:11:11.991Z,20.67
2022-11-22T12:16:53.092Z,20.27
2022-11-22T12:19:59.999Z,23.33
2022-11-22T12:22:56.886Z,24.83
2022-11-22T12:25:38.381Z,27.80
2022-11-22T12:28:26.533Z,26.73
2022-11-22T12:31:20.220Z,28.40
2022-11-22T12:34:02.727Z,28.50
2022-11-22T12:37:00.526Z,29.73
2022-11-22T12:39:29.430Z,28.53
2022-11-22T12:42:04.940Z,28.90
2022-11-22T12:44:39.884Z,28.03
2022-11-22T12:47:16.451Z,26.77
2022-11-22T12:50:06.270Z,26.87
2022-11-22T12:52:38.370Z,28.20
2022-11-22T12:55:29.802Z,27.17
2022-11-22T12:58:27.817Z,25.67
2022-11-22T13:00:54.655Z,25.53
2022-11-22T13:03:37.543Z,23.47
2022-11-22T13:06:07.631Z,24.57
2022-11-22T13:08:53.983Z,22.03
2022-11-22T13:11:48.581Z,25.37
2022-11-22T13:14:28.226Z,24.03
2022-11-22T13:16:55.242Z,23.63
2022-11-22T13:19:26.234Z,23.07
2022-11-22T13:22:16.406Z,20.50
2022-11-22T13:24:58.573Z,21.03
2022-11-22T13:27:47.236Z,20.13
2022-11-22T13:30:26.739Z,22.40
2022-11-22T13:33:02.780Z,19.17
2022-11-22T13:35:38.381Z,19.33
2022-11-22T13:38:14.295Z,21.03
2022-11-22T13:40:51.318Z,20.93
2022-11-22T13:43:22.245Z,19.13
2022-11-22T13:45:55.055Z,18.00
2022-11-22T13:48:40.382Z,16.53
2022-11-22T13:51:14.115Z,16.87
2022-11-22T13:53:44.040Z,16.97
2022-11-22T13:56:16.882Z,14.40
2022-11-22T13:59:18.366Z,17.33
2022-11-22T14:01:45.300Z,15.40
2022-11-22T14:04:24.721Z,15.00
2022-11-22T14:07:09.062Z,15.67
2022-11-22T14:09:51.017Z,17.00
2022-11-22T14:12:54.118Z,16.70
2022-11-22T14:15:41.879Z,18.30
2022-11-22T14:18:42.721Z,17.77
2022-11-22T14:21:49.847Z,18.03
2022-11-22T14:24:34.700Z,18.23
2022-11-22T14:27:48.233Z,19.13
2022-11-22T14:30:37.595Z,17.73
2022-11-22T14:33:15.719Z,18.53
2022-11-22T14:36:08.420Z,17.53
2022-11-22T14:38:43.204Z,18.50
2022-11-22T14:41:28.276Z,16.67
2022-11-22T14:44:26.402Z,18.13
2022-11-22T14:46:58.316Z,19.40
2022-11-22T14:49:45.649Z,18.17
2022-11-22T14:52:30.557Z,17.93
2022-11-22T14:55:00.884Z,19.43
2022-11-22T14:57:31.896Z,18.47
2022-11-22T15:00:14.325Z,20.13
2022-11-22T15:02:59.305Z,20.17
2022-11-22T15:09:11.057Z,18.87
2022-11-22T15:09:46.518Z,19.80
2022-11-22T15:13:02.581Z,18.27
2022-11-22T15:57:37.746Z,21.63
2022-11-22T16:00:24.541Z,21.93
2022-11-22T16:02:58.451Z,21.80
2022-11-22T16:06:05.400Z,21.17
2022-11-22T16:08:21.517Z,20.30
2022-11-22T16:10:51.117Z,22.47
2022-11-22T16:13:20.811Z,22.33
2022-11-22T16:16:10.620Z,22.07
2022-11-22T16:18:42.737Z,22.10
2022-11-22T16:21:12.707Z,22.67
2022-11-22T16:23:45.414Z,23.17
2022-11-22T16:26:21.894Z,23.03
2022-11-22T16:28:51.514Z,22.90
2022-11-22T16:31:27.544Z,23.43
2022-11-22T16:33:56.059Z,22.23
2022-11-22T16:36:28.486Z,23.60
2022-11-22T16:38:55.523Z,22.33
2022-11-22T16:41:29.332Z,24.47
2022-11-22T16:44:13.577Z,24.47
2022-11-22T16:46:41.418Z,23.03
2022-11-22T16:49:22.520Z,25.00
2022-11-22T16:51:51.099Z,24.40
2022-11-22T16:54:20.840Z,23.90
2022-11-22T16:56:47.937Z,25.47
2022-11-22T16:59:14.955Z,23.53
2022-11-22T17:01:43.822Z,25.33
2022-11-22T17:04:40.964Z,21.60
2022-11-22T17:07:12.782Z,21.67
2022-11-22T17:09:39.970Z,21.80
2022-11-22T17:12:30.434Z,22.77
2022-11-22T17:15:00.378Z,20.57
2022-11-22T17:17:27.354Z,22.50
2022-11-22T17:19:54.326Z,22.50
2022-11-22T17:22:21.495Z,25.13
2022-11-22T17:24:48.441Z,23.00
2022-11-22T17:27:15.630Z,24.03
2022-11-22T17:29:51.091Z,22.97
2022-11-22T17:32:18.977Z,22.93
2022-11-22T17:34:46.027Z,22.37
2022-11-22T17:37:13.572Z,23.87
2022-11-22T17:39:41.004Z,23.37
2022-11-22T17:42:08.321Z,23.80
2022-11-22T17:44:35.298Z,23.77
2022-11-22T17:47:02.304Z,24.43
2022-11-22T17:49:29.609Z,24.50
2022-11-22T17:51:56.735Z,24.63
2022-11-22T17:54:26.249Z,25.43
2022-11-22T17:56:53.151Z,25.23
2022-11-22T17:59:20.187Z,27.07
2022-11-22T18:01:47.203Z,26.67
2022-11-22T18:04:14.751Z,27.13
2022-11-22T18:06:41.724Z,25.50
2022-11-22T18:09:08.803Z,29.00
2022-11-22T18:11:35.723Z,24.67
2022-11-22T18:14:02.857Z,26.33
2022-11-22T18:16:31.175Z,27.77
2022-11-22T18:18:59.208Z,27.90
2022-11-22T18:21:34.648Z,29.13
2022-11-22T18:24:02.035Z,27.87
2022-11-22T18:26:44.652Z,27.00
2022-11-22T18:29:43.552Z,25.43
2022-11-22T18:32:02.055Z,28.53
2022-11-22T18:34:30.353Z,27.57
2022-11-22T18:37:03.098Z,26.83
2022-11-22T18:39:37.818Z,29.90
2022-11-22T18:42:14.244Z,26.60
2022-11-22T18:44:41.537Z,27.10
2022-11-22T18:47:08.821Z,26.60
2022-11-22T18:49:36.372Z,28.77
2022-11-22T18:52:03.659Z,25.30
2022-11-22T18:54:31.021Z,27.13
2022-11-22T18:56:58.269Z,27.00
2022-11-22T18:59:25.207Z,26.23
2022-11-22T19:01:52.191Z,27.47
2022-11-22T19:04:19.188Z,27.57
2022-11-22T19:06:46.484Z,28.00
2022-11-22T19:09:13.671Z,28.63
2022-11-22T19:11:40.906Z,26.07
2022-11-22T19:14:08.007Z,26.00
2022-11-22T19:16:35.134Z,28.27
2022-11-22T19:19:02.277Z,27.83
2022-11-22T19:21:30.264Z,27.30
2022-11-22T19:23:57.531Z,29.53
2022-11-22T19:26:27.702Z,29.37
2022-11-22T19:28:57.475Z,27.70
2022-11-22T19:31:29.154Z,27.83
2022-11-22T19:33:57.103Z,28.10
2022-11-22T19:36:32.782Z,28.50
2022-11-22T19:39:01.230Z,26.20
2022-11-22T19:41:28.310Z,27.97
2022-11-22T19:43:56.529Z,28.63
2022-11-22T19:46:25.222Z,26.93
2022-11-22T19:48:54.063Z,26.00
2022-11-22T19:51:22.187Z,28.83
2022-11-22T19:53:53.478Z,27.93
2022-11-22T19:56:21.339Z,27.60
2022-11-22T19:58:54.141Z,27.63
2022-11-22T20:01:25.747Z,28.50
2022-11-22T20:03:59.060Z,27.93
2022-11-22T20:06:27.764Z,29.10
2022-11-22T20:09:01.586Z,26.17
2022-11-22T20:11:28.622Z,28.73
2022-11-22T20:13:55.654Z,26.90
2022-11-22T20:16:25.624Z,26.70
2022-11-22T20:19:01.376Z,28.60
2022-11-22T20:21:31.452Z,26.43
2022-11-22T20:23:59.298Z,27.53
2022-11-22T20:26:26.992Z,27.97
2022-11-22T20:29:01.819Z,29.17
2022-11-22T20:31:31.820Z,29.40
2022-11-22T20:34:00.758Z,25.67
2022-11-22T20:36:33.746Z,29.50
2022-11-22T20:39:05.534Z,29.10
2022-11-22T20:41:36.295Z,25.13
2022-11-22T20:44:03.260Z,26.27
2022-11-22T20:46:30.230Z,26.77
2022-11-22T20:48:58.250Z,27.63
2022-11-22T20:51:28.069Z,26.07
2022-11-22T20:53:56.600Z,29.80
2022-11-22T20:56:23.769Z,27.57
2022-11-22T20:58:50.911Z,27.57
2022-11-22T21:01:24.205Z,27.90
2022-11-22T21:03:51.923Z,28.70
2022-11-22T21:06:21.210Z,30.27
2022-11-22T21:08:48.536Z,26.77
2022-11-22T21:11:24.999Z,30.07
2022-11-22T21:13:52.825Z,28.47
2022-11-22T21:16:24.918Z,30.37
2022-11-22T21:18:56.399Z,29.53
2022-11-22T21:21:25.056Z,28.47
2022-11-22T21:23:56.006Z,30.50
2022-11-22T21:26:24.884Z,26.40
2022-11-22T21:28:52.826Z,28.70
2022-11-22T21:31:21.597Z,29.97
2022-11-22T21:33:49.656Z,27.53
2022-11-22T21:36:16.950Z,29.20
2022-11-22T21:38:43.958Z,29.07
2022-11-22T21:44:09.671Z,28.73
2022-11-22T21:46:36.841Z,29.43
2022-11-22T21:49:03.789Z,28.23
2022-11-22T21:51:32.097Z,26.93
2022-11-22T21:54:01.178Z,28.80
2022-11-22T21:56:28.783Z,27.90
2022-11-22T21:58:57.591Z,28.53
2022-11-22T22:01:25.851Z,29.40
2022-11-22T22:03:53.619Z,29.50
2022-11-22T22:06:21.013Z,28.17
2022-11-22T22:08:48.286Z,28.03
2022-11-22T22:11:15.545Z,30.50
2022-11-22T22:13:42.500Z,29.57
2022-11-22T22:16:15.887Z,27.90
2022-11-22T22:18:43.585Z,28.37
2022-11-22T22:21:13.156Z,27.50
2022-11-22T22:23:41.717Z,26.80
2022-11-22T22:26:12.730Z,28.57
2022-11-22T22:28:40.510Z,25.80
2022-11-22T22:31:22.307Z,27.17
2022-11-22T22:33:54.962Z,26.20
2022-11-22T22:36:23.359Z,26.30
2022-11-22T22:38:50.626Z,24.77
2022-11-22T22:41:17.725Z,27.33
2022-11-22T22:43:47.999Z,27.60
2022-11-22T22:46:23.278Z,28.23
2022-11-22T22:48:50.942Z,28.63
2022-11-22T22:51:30.624Z,27.47
2022-11-22T22:53:58.820Z,26.97
2022-11-22T22:56:27.723Z,28.37
2022-11-22T22:58:56.327Z,26.57
2022-11-22T23:01:30.314Z,27.63
2022-11-22T23:04:00.080Z,28.70
2022-11-22T23:06:30.295Z,27.57
2022-11-22T23:08:58.334Z,28.30
2022-11-22T23:11:49.475Z,29.67
2022-11-22T23:14:22.975Z,28.97
2022-11-22T23:16:54.529Z,27.97
2022-11-22T23:19:24.334Z,29.50
2022-11-22T23:21:51.533Z,27.23
2022-11-22T23:24:18.612Z,28.67
2022-11-22T23:26:45.542Z,27.73
2022-11-22T23:29:12.659Z,31.83
2022-11-22T23:31:39.702Z,30.07
2022-11-22T23:34:06.717Z,28.63
2022-11-22T23:36:39.000Z,27.97
2022-11-22T23:39:08.260Z,25.97
2022-11-22T23:41:35.205Z,27.93
2022-11-22T23:44:02.166Z,28.77
2022-11-22T23:46:29.261Z,30.77
2022-11-22T23:48:59.568Z,29.87
2022-11-22T23:51:28.684Z,29.83
2022-11-22T23:54:01.075Z,28.93
2022-11-22T23:56:30.165Z,28.97
2022-11-22T23:58:59.826Z,28.17
